createdAt,value
2019-03-08T00:01:33.148Z,76.23
2019-03-08T00:04:02.254Z,75.50
2019-03-08T00:06:31.330Z,75.59
2019-03-08T00:09:00.440Z,75.60
2019-03-08T00:11:29.513Z,75.64
2019-03-08T00:13:59.497Z,75.81
2019-03-08T00:16:28.571Z,76.19
2019-03-08T00:18:57.666Z,76.29
2019-03-08T00:21:26.752Z,76.71
2019-03-08T00:23:55.845Z,76.67
2019-03-08T00:26:24.925Z,76.51
2019-03-08T00:28:55.198Z,75.81
2019-03-08T00:31:24.276Z,75.60
2019-03-08T00:33:53.576Z,74.57
2019-03-08T00:36:22.653Z,75.30
2019-03-08T00:38:51.749Z,75.61
2019-03-08T00:41:20.821Z,75.50
2019-03-08T00:43:49.915Z,75.25
2019-03-08T00:46:18.994Z,75.41
2019-03-08T00:48:48.269Z,74.50
2019-03-08T00:51:17.343Z,73.91
2019-03-08T00:53:46.437Z,74.43
2019-03-08T00:56:15.849Z,74.48
2019-03-08T00:58:44.930Z,74.07
2019-03-08T01:01:14.031Z,74.19
2019-03-08T01:03:43.107Z,74.57
2019-03-08T01:06:12.206Z,74.68
2019-03-08T01:08:41.283Z,74.31
2019-03-08T01:11:10.377Z,74.25
2019-03-08T01:13:39.464Z,73.80
2019-03-08T01:16:08.553Z,72.57
2019-03-08T01:18:37.630Z,72.31
2019-03-08T01:21:06.725Z,73.26
2019-03-08T01:23:35.811Z,73.45
2019-03-08T01:26:05.218Z,73.45
2019-03-08T01:28:35.804Z,73.08
2019-03-08T01:31:05.275Z,73.63
2019-03-08T01:33:34.372Z,73.28
2019-03-08T01:36:03.462Z,73.51
2019-03-08T01:38:32.642Z,73.49
2019-03-08T01:41:01.737Z,73.21
2019-03-08T01:43:30.855Z,73.09
2019-03-08T01:45:59.945Z,73.16
2019-03-08T01:48:29.017Z,73.29
2019-03-08T01:50:58.115Z,73.63
2019-03-08T01:53:27.186Z,73.71
2019-03-08T01:55:56.282Z,74.04
2019-03-08T01:58:25.633Z,74.21
2019-03-08T02:00:54.725Z,75.33
2019-03-08T02:03:23.797Z,73.90
2019-03-08T02:05:52.918Z,73.60
2019-03-08T02:08:21.998Z,74.29
2019-03-08T02:10:51.101Z,74.62
2019-03-08T02:13:20.364Z,75.06
2019-03-08T02:15:49.459Z,75.13
2019-03-08T02:18:18.533Z,75.10
2019-03-08T02:20:47.650Z,75.33
2019-03-08T02:23:16.710Z,75.54
2019-03-08T02:25:45.825Z,75.40
2019-03-08T02:28:14.904Z,75.57
2019-03-08T02:30:44.038Z,75.65
2019-03-08T02:33:13.107Z,75.53
2019-03-08T02:35:42.189Z,75.68
2019-03-08T02:38:11.285Z,76.16
2019-03-08T02:40:40.364Z,76.36
2019-03-08T02:43:11.384Z,76.93
2019-03-08T02:45:40.442Z,76.62
2019-03-08T02:48:09.570Z,77.18
2019-03-08T02:50:38.823Z,77.11
2019-03-08T02:53:07.919Z,77.36
2019-03-08T02:55:36.993Z,77.23
2019-03-08T02:58:06.121Z,77.44
2019-03-08T03:00:44.238Z,77.60
2019-03-08T03:03:13.529Z,77.33
2019-03-08T03:05:42.601Z,77.41
2019-03-08T03:08:11.697Z,77.71
2019-03-08T03:10:40.771Z,77.70
2019-03-08T03:13:09.868Z,77.85
2019-03-08T03:15:38.940Z,77.52
2019-03-08T03:18:08.036Z,77.66
2019-03-08T03:20:37.390Z,77.80
2019-03-08T03:23:06.487Z,77.79
2019-03-08T03:25:35.568Z,77.50
2019-03-08T03:28:04.665Z,77.63
2019-03-08T03:30:33.739Z,77.62
2019-03-08T03:33:02.851Z,77.67
2019-03-08T03:35:32.098Z,77.33
2019-03-08T03:38:01.192Z,77.26
2019-03-08T03:40:30.266Z,77.69
2019-03-08T03:42:59.367Z,78.34
2019-03-08T03:45:28.460Z,78.65
2019-03-08T03:47:57.525Z,79.30
2019-03-08T03:50:26.613Z,79.14
2019-03-08T03:52:55.689Z,79.34
2019-03-08T03:55:24.788Z,79.30
2019-03-08T03:57:53.862Z,79.88
2019-03-08T04:00:22.966Z,80.58
2019-03-08T04:02:52.032Z,80.56
2019-03-08T04:05:21.130Z,81.09
2019-03-08T04:07:50.208Z,81.45
2019-03-08T04:10:19.505Z,81.69
2019-03-08T04:12:48.577Z,81.52
2019-03-08T04:15:17.682Z,81.54
2019-03-08T04:17:47.035Z,80.34
2019-03-08T04:20:16.136Z,80.37
2019-03-08T04:22:45.210Z,80.16
2019-03-08T04:25:14.619Z,80.12
2019-03-08T04:27:43.690Z,80.43
2019-03-08T04:30:14.444Z,81.08
2019-03-08T04:32:43.539Z,80.97
2019-03-08T04:35:12.638Z,81.44
2019-03-08T04:37:41.721Z,81.61
2019-03-08T04:40:10.965Z,81.95
2019-03-08T04:42:40.050Z,82.43
2019-03-08T04:45:10.102Z,83.20
2019-03-08T04:47:39.169Z,84.03
2019-03-08T04:50:08.925Z,84.07
2019-03-08T04:52:38.011Z,83.99
2019-03-08T04:55:08.760Z,84.20
2019-03-08T04:57:37.831Z,83.98
2019-03-08T05:00:07.400Z,84.11
2019-03-08T05:02:36.478Z,84.26
2019-03-08T05:05:05.707Z,84.20
2019-03-08T05:07:34.779Z,83.81
2019-03-08T05:10:04.395Z,83.92
2019-03-08T05:12:33.506Z,83.37
2019-03-08T05:15:02.584Z,83.24
2019-03-08T05:17:31.678Z,83.52
2019-03-08T05:20:00.751Z,84.32
2019-03-08T05:22:29.845Z,84.93
2019-03-08T05:24:58.920Z,85.34
2019-03-08T05:27:28.029Z,85.19
2019-03-08T05:29:57.158Z,85.42
2019-03-08T05:32:26.554Z,85.99
2019-03-08T05:34:55.633Z,86.32
2019-03-08T05:37:24.742Z,86.48
2019-03-08T05:39:53.817Z,86.57
2019-03-08T05:42:23.196Z,86.79
2019-03-08T05:44:52.277Z,86.61
2019-03-08T05:47:21.371Z,86.86
2019-03-08T05:49:50.451Z,86.86
2019-03-08T05:52:19.547Z,87.22
2019-03-08T05:54:48.617Z,87.88
2019-03-08T05:57:17.889Z,88.35
2019-03-08T05:59:46.961Z,88.10
2019-03-08T06:02:16.051Z,88.24
2019-03-08T06:04:45.130Z,88.70
2019-03-08T06:07:14.222Z,88.41
2019-03-08T06:09:43.305Z,87.99
2019-03-08T06:12:12.481Z,87.73
2019-03-08T06:14:41.558Z,87.14
2019-03-08T06:17:10.647Z,86.93
2019-03-08T06:19:39.724Z,86.16
2019-03-08T06:22:08.819Z,86.29
2019-03-08T06:24:37.902Z,85.85
2019-03-08T06:27:07.475Z,85.66
2019-03-08T06:29:36.545Z,85.41
2019-03-08T06:32:05.651Z,85.22
2019-03-08T06:34:34.743Z,85.11
2019-03-08T06:37:03.855Z,84.99
2019-03-08T06:39:32.925Z,84.75
2019-03-08T06:42:02.089Z,84.67
2019-03-08T06:44:31.166Z,84.37
2019-03-08T06:47:00.257Z,84.51
2019-03-08T06:49:29.330Z,85.13
2019-03-08T06:51:58.424Z,85.24
2019-03-08T06:54:27.497Z,84.93
2019-03-08T06:56:56.769Z,85.16
2019-03-08T06:59:31.014Z,85.22
2019-03-08T07:02:00.110Z,85.62
2019-03-08T07:04:29.186Z,85.71
2019-03-08T07:06:58.277Z,86.08
2019-03-08T07:09:27.358Z,86.64
2019-03-08T07:11:56.454Z,86.38
2019-03-08T07:14:25.532Z,86.95
2019-03-08T07:16:54.631Z,87.01
2019-03-08T07:19:23.711Z,87.04
2019-03-08T07:21:55.720Z,87.12
2019-03-08T07:24:42.446Z,87.56
2019-03-08T07:27:34.529Z,87.96
2019-03-08T07:30:34.445Z,87.74
2019-03-08T07:33:25.348Z,87.92
2019-03-08T07:36:16.636Z,87.47
2019-03-08T07:39:05.023Z,87.91
2019-03-08T07:41:43.066Z,88.13
2019-03-08T07:44:31.130Z,87.97
2019-03-08T07:47:14.900Z,88.20
2019-03-08T07:50:09.118Z,89.00
2019-03-08T07:53:03.114Z,90.11
2019-03-08T07:55:42.975Z,91.14
2019-03-08T07:58:24.347Z,91.21
2019-03-08T08:01:04.761Z,91.28
2019-03-08T08:04:01.370Z,91.41
2019-03-08T08:06:36.277Z,91.53
2019-03-08T08:09:36.082Z,93.00
2019-03-08T08:12:33.246Z,93.96
2019-03-08T08:15:13.310Z,95.68
2019-03-08T08:17:58.995Z,96.35
2019-03-08T08:20:41.125Z,96.54
2019-03-08T08:23:47.105Z,97.05
2019-03-08T08:26:35.152Z,97.53
2019-03-08T08:29:23.217Z,97.36
2019-03-08T08:32:03.610Z,96.62
2019-03-08T08:34:50.569Z,97.09
2019-03-08T08:37:53.826Z,98.05
2019-03-08T08:40:41.939Z,98.33
2019-03-08T08:43:22.364Z,98.43
2019-03-08T08:46:19.518Z,99.08
2019-03-08T08:48:59.734Z,99.65
2019-03-08T08:51:56.789Z,99.95
2019-03-08T08:54:41.170Z,100.00
2019-03-08T08:57:26.817Z,100.00
2019-03-08T09:00:13.573Z,100.00
2019-03-08T09:03:04.526Z,100.00
2019-03-08T09:06:01.538Z,99.65
2019-03-08T09:08:49.583Z,98.91
2019-03-08T09:11:53.113Z,96.66
2019-03-08T09:14:32.736Z,96.51
2019-03-08T09:17:20.802Z,96.24
2019-03-08T09:20:07.568Z,95.39
2019-03-08T09:22:50.794Z,94.77
2019-03-08T09:25:37.273Z,92.80
2019-03-08T09:28:23.722Z,93.41
2019-03-08T09:30:59.571Z,91.21
2019-03-08T09:33:32.563Z,92.12
2019-03-08T09:36:20.625Z,89.99
2019-03-08T09:39:07.114Z,90.65
2019-03-08T09:41:49.253Z,90.61
2019-03-08T09:44:30.306Z,89.66
2019-03-08T09:47:17.051Z,88.91
2019-03-08T09:50:02.154Z,89.28
2019-03-08T09:52:56.006Z,88.19
2019-03-08T09:55:42.001Z,86.56
2019-03-08T09:58:29.025Z,83.07
2019-03-08T10:01:17.090Z,83.56
2019-03-08T10:03:59.281Z,83.90
2019-03-08T10:06:46.100Z,85.35
2019-03-08T10:09:23.042Z,86.50
2019-03-08T10:12:05.486Z,88.39
2019-03-08T10:14:56.396Z,89.52
2019-03-08T10:17:34.160Z,87.28
2019-03-08T10:20:12.600Z,83.20
2019-03-08T10:22:59.586Z,79.02
2019-03-08T10:25:53.820Z,80.40
2019-03-08T10:28:48.144Z,83.87
2019-03-08T10:31:42.282Z,81.68
2019-03-08T10:34:30.380Z,82.13
2019-03-08T10:37:17.101Z,81.93
2019-03-08T10:39:55.616Z,81.39
2019-03-08T10:42:36.008Z,82.20
2019-03-08T10:45:27.614Z,81.08
2019-03-08T10:48:03.905Z,77.56
2019-03-08T10:50:51.638Z,76.27
2019-03-08T10:53:42.955Z,71.22
2019-03-08T10:56:21.406Z,68.04
2019-03-08T10:59:08.245Z,68.58
2019-03-08T11:01:54.942Z,66.73
2019-03-08T11:04:35.385Z,62.90
2019-03-08T11:07:31.330Z,63.67
2019-03-08T11:10:17.986Z,69.02
2019-03-08T11:13:06.044Z,69.75
2019-03-08T11:15:43.776Z,68.85
2019-03-08T11:18:40.682Z,69.07
2019-03-08T11:21:28.075Z,71.11
2019-03-08T11:24:25.187Z,73.27
2019-03-08T11:27:11.642Z,74.07
2019-03-08T11:29:59.715Z,77.62
2019-03-08T11:32:47.759Z,79.54
2019-03-08T11:35:34.463Z,78.92
2019-03-08T11:38:17.058Z,76.80
2019-03-08T11:41:02.920Z,76.21
2019-03-08T11:43:50.986Z,75.96
2019-03-08T11:46:53.932Z,74.80
2019-03-08T11:49:33.232Z,74.51
2019-03-08T11:52:11.953Z,68.26
2019-03-08T11:54:56.101Z,63.03
2019-03-08T11:57:46.582Z,62.71
2019-03-08T12:00:40.603Z,68.15
2019-03-08T12:03:35.066Z,70.79
2019-03-08T12:06:13.961Z,71.58
2019-03-08T12:09:01.351Z,72.40
2019-03-08T12:11:56.224Z,72.50
2019-03-08T12:14:47.127Z,64.79
2019-03-08T12:17:29.197Z,60.80
2019-03-08T12:20:14.806Z,65.09
2019-03-08T12:23:01.589Z,68.71
2019-03-08T12:25:52.709Z,67.14
2019-03-08T12:28:38.479Z,68.80
2019-03-08T12:31:27.021Z,68.96
2019-03-08T12:34:15.094Z,62.84
2019-03-08T12:37:06.357Z,51.44
2019-03-08T12:39:50.612Z,39.52
2019-03-08T12:42:47.191Z,42.28
2019-03-08T12:45:44.185Z,49.62
2019-03-08T12:48:32.237Z,54.35
2019-03-08T12:51:38.337Z,54.86
2019-03-08T12:54:35.629Z,56.81
2019-03-08T12:57:23.693Z,59.12
2019-03-08T13:00:17.741Z,54.21
2019-03-08T13:03:18.845Z,39.87
2019-03-08T13:05:57.550Z,37.30
2019-03-08T13:09:03.674Z,43.14
2019-03-08T13:11:33.609Z,39.86
2019-03-08T13:14:02.751Z,41.62
2019-03-08T13:16:31.861Z,41.04
2019-03-08T13:19:00.949Z,41.09
2019-03-08T13:21:30.041Z,44.11
2019-03-08T13:23:59.154Z,42.57
2019-03-08T13:26:28.423Z,48.36
2019-03-08T13:28:57.539Z,46.82
2019-03-08T13:31:26.612Z,48.93
2019-03-08T13:33:55.746Z,49.55
2019-03-08T13:36:24.832Z,49.45
2019-03-08T13:38:53.936Z,49.91
2019-03-08T13:41:23.190Z,50.61
2019-03-08T13:43:52.286Z,52.96
2019-03-08T13:46:21.369Z,54.29
2019-03-08T13:48:50.464Z,55.63
2019-03-08T13:51:19.537Z,56.87
2019-03-08T13:53:48.635Z,57.35
2019-03-08T13:56:17.713Z,50.92
2019-03-08T13:58:46.810Z,47.64
2019-03-08T14:01:15.896Z,42.34
2019-03-08T14:03:45.057Z,44.59
2019-03-08T14:06:14.138Z,42.53
2019-03-08T14:08:43.246Z,49.51
2019-03-08T14:11:12.437Z,52.03
2019-03-08T14:13:41.623Z,53.48
2019-03-08T14:16:10.705Z,50.87
2019-03-08T14:18:39.820Z,45.03
2019-03-08T14:21:08.913Z,44.47
2019-03-08T14:23:38.196Z,42.43
2019-03-08T14:26:07.281Z,41.47
2019-03-08T14:28:36.371Z,41.21
2019-03-08T14:31:14.446Z,42.91
2019-03-08T14:33:43.570Z,43.53
2019-03-08T14:36:12.835Z,48.91
2019-03-08T14:38:41.921Z,45.81
2019-03-08T14:41:31.676Z,46.65
2019-03-08T14:44:09.489Z,45.28
2019-03-08T14:46:56.449Z,44.12
2019-03-08T14:49:25.959Z,48.39
2019-03-08T14:51:55.054Z,44.46
2019-03-08T14:54:24.334Z,50.20
2019-03-08T14:56:53.413Z,47.51
2019-03-08T14:59:22.501Z,50.83
2019-03-08T15:01:51.607Z,56.59
2019-03-08T15:04:20.695Z,59.67
2019-03-08T15:06:49.812Z,58.07
2019-03-08T15:09:18.896Z,56.26
2019-03-08T15:11:48.015Z,55.61
2019-03-08T15:14:17.105Z,57.04
2019-03-08T15:16:46.281Z,59.63
2019-03-08T15:19:15.329Z,61.15
2019-03-08T15:21:48.258Z,62.60
2019-03-08T15:24:15.237Z,63.76
2019-03-08T15:26:44.351Z,64.06
2019-03-08T15:29:13.644Z,65.31
2019-03-08T15:31:42.726Z,66.35
2019-03-08T15:34:14.620Z,64.63
2019-03-08T15:36:42.884Z,58.39
2019-03-08T15:39:11.975Z,56.20
2019-03-08T15:41:41.078Z,57.28
2019-03-08T15:44:10.163Z,59.09
2019-03-08T15:46:39.439Z,63.36
2019-03-08T15:49:08.514Z,58.86
2019-03-08T15:51:37.619Z,53.65
2019-03-08T15:54:06.709Z,55.67
2019-03-08T15:56:35.887Z,60.00
2019-03-08T15:59:04.982Z,63.91
2019-03-08T16:01:34.081Z,63.87
2019-03-08T16:04:03.167Z,65.24
2019-03-08T16:06:32.264Z,66.35
2019-03-08T16:09:01.341Z,67.98
2019-03-08T16:11:30.424Z,69.21
2019-03-08T16:14:08.448Z,71.06
2019-03-08T16:16:30.519Z,72.01
2019-03-08T16:18:59.617Z,73.22
2019-03-08T16:21:28.689Z,74.64
2019-03-08T16:23:57.794Z,74.38
2019-03-08T16:26:26.875Z,75.70
2019-03-08T16:28:55.980Z,75.06
2019-03-08T16:31:44.021Z,74.70
2019-03-08T16:34:13.119Z,74.82
2019-03-08T16:36:49.475Z,75.23
2019-03-08T16:39:41.315Z,74.56
2019-03-08T16:42:30.856Z,74.86
2019-03-08T16:45:30.649Z,73.17
2019-03-08T16:48:27.285Z,73.18
2019-03-08T16:51:23.827Z,74.50
2019-03-08T16:54:09.992Z,74.21
2019-03-08T16:56:56.769Z,77.38
2019-03-08T16:59:42.062Z,77.98
2019-03-08T17:02:23.531Z,84.25
2019-03-08T17:05:01.492Z,86.12
2019-03-08T17:07:52.294Z,87.20
2019-03-08T17:10:44.355Z,89.58
2019-03-08T17:13:21.758Z,88.55
2019-03-08T17:16:09.826Z,88.33
2019-03-08T17:18:54.386Z,89.12
2019-03-08T17:21:45.757Z,86.98
2019-03-08T17:24:27.598Z,83.60
2019-03-08T17:27:10.146Z,83.60
2019-03-08T17:29:50.622Z,82.62
2019-03-08T17:32:44.765Z,82.10
2019-03-08T17:35:42.321Z,81.88
2019-03-08T17:38:19.445Z,81.89
2019-03-08T17:40:56.262Z,83.10
2019-03-08T17:43:41.340Z,82.34
2019-03-08T17:46:47.619Z,82.13
2019-03-08T17:49:38.759Z,82.85
2019-03-08T17:52:21.459Z,82.82
2019-03-08T17:55:09.518Z,82.93
2019-03-08T17:57:56.750Z,82.64
2019-03-08T18:00:48.166Z,82.70
2019-03-08T18:03:32.508Z,83.46
2019-03-08T18:06:29.476Z,83.07
2019-03-08T18:09:17.976Z,82.79
2019-03-08T18:12:09.466Z,82.57
2019-03-08T18:14:57.971Z,83.01
2019-03-08T18:17:55.819Z,83.17
2019-03-08T18:20:41.270Z,82.69
2019-03-08T18:23:32.441Z,83.20
2019-03-08T18:26:21.314Z,83.25
2019-03-08T18:29:21.833Z,83.37
2019-03-08T18:31:58.294Z,83.46
2019-03-08T18:34:36.427Z,83.28
2019-03-08T18:37:31.113Z,83.75
2019-03-08T18:40:16.231Z,83.23
2019-03-08T18:43:10.811Z,83.14
2019-03-08T18:46:02.192Z,83.08
2019-03-08T18:48:50.643Z,83.24
2019-03-08T18:51:39.447Z,84.07
2019-03-08T18:54:33.288Z,83.77
2019-03-08T18:57:19.260Z,84.00
2019-03-08T18:59:56.973Z,84.48
2019-03-08T19:02:32.777Z,84.03
2019-03-08T19:05:16.506Z,84.21
2019-03-08T19:08:22.815Z,83.97
2019-03-08T19:11:16.260Z,84.10
2019-03-08T19:14:10.130Z,83.79
2019-03-08T19:17:01.372Z,83.84
2019-03-08T19:20:05.090Z,84.33
2019-03-08T19:22:39.502Z,83.93
2019-03-08T19:25:39.956Z,83.22
2019-03-08T19:28:20.779Z,83.29
2019-03-08T19:31:00.297Z,83.76
2019-03-08T19:33:39.665Z,83.12
2019-03-08T19:36:34.012Z,82.80
2019-03-08T19:39:24.906Z,82.26
2019-03-08T19:42:00.265Z,81.70
2019-03-08T19:44:47.131Z,81.15
2019-03-08T19:47:33.846Z,80.70
2019-03-08T19:50:21.743Z,80.67
2019-03-08T19:53:16.198Z,80.55
2019-03-08T19:56:04.589Z,80.05
2019-03-08T19:58:44.744Z,79.45
2019-03-08T20:01:51.664Z,79.37
2019-03-08T20:04:39.002Z,78.81
2019-03-08T20:07:26.179Z,78.05
2019-03-08T20:10:30.147Z,78.23
2019-03-08T20:13:20.563Z,77.69
2019-03-08T20:15:58.941Z,77.39
2019-03-08T20:19:05.268Z,77.26
2019-03-08T20:21:53.968Z,77.33
2019-03-08T20:24:51.500Z,76.76
2019-03-08T20:27:37.972Z,76.59
2019-03-08T20:30:39.701Z,76.85
2019-03-08T20:33:45.678Z,76.34
2019-03-08T20:36:48.865Z,76.09
2019-03-08T20:39:40.662Z,74.98
2019-03-08T20:42:15.561Z,75.05
2019-03-08T20:44:50.114Z,74.93
2019-03-08T20:47:22.826Z,74.95
2019-03-08T20:49:52.022Z,75.51
2019-03-08T20:52:21.368Z,75.82
2019-03-08T20:54:50.661Z,76.18
2019-03-08T20:57:21.293Z,76.27
2019-03-08T20:59:50.737Z,76.22
2019-03-08T21:02:20.167Z,76.57
2019-03-08T21:04:49.939Z,76.51
2019-03-08T21:07:19.482Z,76.47
2019-03-08T21:09:49.002Z,77.15
2019-03-08T21:12:18.446Z,76.58
2019-03-08T21:14:47.711Z,76.83
2019-03-08T21:17:17.258Z,77.38
2019-03-08T21:19:46.342Z,77.07
2019-03-08T21:22:15.454Z,76.24
2019-03-08T21:24:44.526Z,76.03
2019-03-08T21:27:13.607Z,76.19
2019-03-08T21:29:42.729Z,76.50
2019-03-08T21:32:11.831Z,76.78
2019-03-08T21:34:40.949Z,76.33
2019-03-08T21:37:10.030Z,76.79
2019-03-08T21:39:39.140Z,76.89
2019-03-08T21:42:08.232Z,76.61
2019-03-08T21:44:37.328Z,76.68
2019-03-08T21:47:06.407Z,77.47
2019-03-08T21:49:35.501Z,76.92
2019-03-08T21:52:04.586Z,77.00
2019-03-08T21:54:33.690Z,76.98
2019-03-08T21:57:02.949Z,77.31
2019-03-08T21:59:32.056Z,77.43
2019-03-08T22:02:01.129Z,77.81
2019-03-08T22:04:51.137Z,77.72
2019-03-08T22:07:21.523Z,77.35
2019-03-08T22:09:56.127Z,77.50
2019-03-08T22:12:25.174Z,77.25
2019-03-08T22:14:54.268Z,77.06
2019-03-08T22:17:23.348Z,77.12
2019-03-08T22:19:52.445Z,76.95
2019-03-08T22:22:21.516Z,77.14
2019-03-08T22:24:50.619Z,76.51
2019-03-08T22:27:19.710Z,76.64
2019-03-08T22:29:48.805Z,76.45
2019-03-08T22:32:18.146Z,76.50
2019-03-08T22:34:47.258Z,76.68
2019-03-08T22:37:16.334Z,76.36
2019-03-08T22:39:45.437Z,76.38
2019-03-08T22:42:14.514Z,76.67
2019-03-08T22:44:43.686Z,76.72
2019-03-08T22:47:12.757Z,76.89
2019-03-08T22:49:41.852Z,76.27
2019-03-08T22:52:10.920Z,76.07
2019-03-08T22:54:40.023Z,76.14
2019-03-08T22:57:09.282Z,76.36
2019-03-08T22:59:38.385Z,76.35
2019-03-08T23:02:09.353Z,75.97
2019-03-08T23:04:38.474Z,76.17
2019-03-08T23:07:07.542Z,75.69
2019-03-08T23:09:36.897Z,76.15
2019-03-08T23:12:06.025Z,75.87
2019-03-08T23:14:35.096Z,76.22
2019-03-08T23:17:04.196Z,76.02
2019-03-08T23:19:33.261Z,76.27
2019-03-08T23:22:02.357Z,76.15
2019-03-08T23:24:31.437Z,75.78
2019-03-08T23:27:18.273Z,75.41
2019-03-08T23:29:50.961Z,76.00
2019-03-08T23:32:29.122Z,75.83
2019-03-08T23:34:58.223Z,76.20
2019-03-08T23:37:27.319Z,76.46
2019-03-08T23:39:56.403Z,75.81
2019-03-08T23:42:25.496Z,74.79
2019-03-08T23:44:54.570Z,75.07
2019-03-08T23:47:23.668Z,74.76
2019-03-08T23:49:52.749Z,74.78
2019-03-08T23:52:21.844Z,75.27
2019-03-08T23:54:50.921Z,75.12
2019-03-08T23:57:20.212Z,75.28
2019-03-08T23:59:49.294Z,75.80
